createdAt,value
2019-02-16T00:00:04.492Z,0.70
2019-02-16T00:01:04.506Z,0.60
2019-02-16T00:02:05.062Z,0.70
2019-02-16T00:03:05.132Z,0.70
2019-02-16T00:04:05.105Z,0.60
2019-02-16T00:05:04.216Z,0.60
2019-02-16T00:06:04.678Z,0.60
2019-02-16T00:07:04.933Z,0.60
2019-02-16T00:08:04.395Z,0.60
2019-02-16T00:09:05.039Z,0.60
2019-02-16T00:10:04.400Z,0.60
2019-02-16T00:11:05.114Z,0.60
2019-02-16T00:12:05.095Z,0.60
2019-02-16T00:13:04.565Z,0.50
2019-02-16T00:14:05.037Z,0.50
2019-02-16T00:15:04.978Z,0.50
2019-02-16T00:16:04.288Z,0.50
2019-02-16T00:17:04.453Z,0.50
2019-02-16T00:18:04.507Z,0.50
2019-02-16T00:19:04.759Z,0.50
2019-02-16T00:20:05.038Z,0.50
2019-02-16T00:21:04.514Z,0.50
2019-02-16T00:22:04.383Z,0.50
2019-02-16T00:23:04.597Z,0.50
2019-02-16T00:24:04.130Z,0.40
2019-02-16T00:25:04.196Z,0.50
2019-02-16T00:26:04.332Z,0.40
2019-02-16T00:27:04.288Z,0.50
2019-02-16T00:28:04.353Z,0.50
2019-02-16T00:29:04.730Z,0.50
2019-02-16T00:30:04.969Z,0.50
2019-02-16T00:31:05.271Z,0.50
2019-02-16T00:32:04.662Z,0.50
2019-02-16T00:33:05.070Z,0.50
2019-02-16T00:34:05.027Z,0.50
2019-02-16T00:35:04.600Z,0.50
2019-02-16T00:36:04.912Z,0.40
2019-02-16T00:37:04.505Z,0.50
2019-02-16T00:38:04.395Z,0.40
2019-02-16T00:39:04.503Z,0.40
2019-02-16T00:40:04.422Z,0.40
2019-02-16T00:41:04.542Z,0.40
2019-02-16T00:42:04.623Z,0.40
2019-02-16T00:43:04.733Z,0.40
2019-02-16T00:44:04.977Z,0.40
2019-02-16T00:45:04.900Z,0.40
2019-02-16T00:46:05.013Z,0.40
2019-02-16T00:47:04.930Z,0.40
2019-02-16T00:48:04.467Z,0.40
2019-02-16T00:49:04.497Z,0.40
2019-02-16T00:50:04.737Z,0.40
2019-02-16T00:51:13.124Z,0.40
2019-02-16T00:52:04.470Z,0.40
2019-02-16T00:53:05.133Z,0.40
2019-02-16T00:54:05.246Z,0.40
2019-02-16T00:55:04.234Z,0.40
2019-02-16T00:56:04.403Z,0.40
2019-02-16T00:57:04.597Z,0.40
2019-02-16T00:58:04.234Z,0.30
2019-02-16T00:59:04.332Z,0.30
2019-02-16T01:00:04.814Z,0.30
2019-02-16T01:01:04.811Z,0.30
2019-02-16T01:02:04.745Z,0.30
2019-02-16T01:03:10.009Z,0.30
2019-02-16T01:04:04.398Z,0.30
2019-02-16T01:05:05.046Z,0.30
2019-02-16T01:06:05.135Z,0.30
2019-02-16T01:07:05.107Z,0.30
2019-02-16T01:08:04.719Z,0.30
2019-02-16T01:09:04.777Z,0.30
2019-02-16T01:10:05.084Z,0.30
2019-02-16T01:11:05.070Z,0.30
2019-02-16T01:12:04.316Z,0.30
2019-02-16T01:13:04.763Z,0.30
2019-02-16T01:14:04.961Z,0.30
2019-02-16T01:15:04.515Z,0.30
2019-02-16T01:16:04.587Z,0.30
2019-02-16T01:17:04.696Z,0.30
2019-02-16T01:18:04.774Z,0.30
2019-02-16T01:19:04.862Z,0.30
2019-02-16T01:20:04.502Z,0.30
2019-02-16T01:21:04.516Z,0.30
2019-02-16T01:22:04.463Z,0.30
2019-02-16T01:23:04.912Z,0.30
2019-02-16T01:24:04.607Z,0.30
2019-02-16T01:25:04.722Z,0.30
2019-02-16T01:26:04.225Z,0.30
2019-02-16T01:27:04.348Z,0.30
2019-02-16T01:28:04.575Z,0.30
2019-02-16T01:29:04.446Z,0.30
2019-02-16T01:30:04.608Z,0.30
2019-02-16T01:31:04.282Z,0.30
2019-02-16T01:32:04.362Z,0.30
2019-02-16T01:33:05.025Z,0.30
2019-02-16T01:34:05.081Z,0.30
2019-02-16T01:35:04.703Z,0.30
2019-02-16T01:36:05.225Z,0.30
2019-02-16T01:37:09.388Z,0.30
2019-02-16T01:38:04.879Z,0.30
2019-02-16T01:39:04.918Z,0.20
2019-02-16T01:40:04.995Z,0.30
2019-02-16T01:41:05.013Z,0.20
2019-02-16T01:42:04.387Z,0.20
2019-02-16T01:43:04.485Z,0.20
2019-02-16T01:44:04.573Z,0.20
2019-02-16T01:45:04.761Z,0.20
2019-02-16T01:46:04.728Z,0.20
2019-02-16T01:47:04.231Z,0.20
2019-02-16T01:48:04.243Z,0.20
2019-02-16T01:49:04.446Z,0.20
2019-02-16T01:50:04.522Z,0.20
2019-02-16T01:51:05.091Z,0.20
2019-02-16T01:52:05.136Z,0.20
2019-02-16T01:53:04.989Z,0.20
2019-02-16T01:54:04.327Z,0.20
2019-02-16T01:55:04.901Z,0.20
2019-02-16T01:56:04.315Z,0.20
2019-02-16T01:57:04.533Z,0.20
2019-02-16T01:58:04.625Z,0.20
2019-02-16T01:59:04.695Z,0.20
2019-02-16T02:00:04.748Z,0.20
2019-02-16T02:01:05.142Z,0.10
2019-02-16T02:02:05.164Z,0.20
2019-02-16T02:03:04.893Z,0.10
2019-02-16T02:04:04.229Z,0.10
2019-02-16T02:05:04.746Z,0.10
2019-02-16T02:06:04.933Z,0.10
2019-02-16T02:07:05.154Z,0.10
2019-02-16T02:08:04.355Z,0.10
2019-02-16T02:09:04.510Z,0.10
2019-02-16T02:10:04.620Z,0.10
2019-02-16T02:11:04.674Z,0.10
2019-02-16T02:12:04.723Z,0.10
2019-02-16T02:13:04.424Z,0.10
2019-02-16T02:14:04.395Z,0.10
2019-02-16T02:15:04.676Z,0.10
2019-02-16T02:16:04.647Z,0.10
2019-02-16T02:17:04.771Z,0.10
2019-02-16T02:18:04.559Z,0.10
2019-02-16T02:19:04.643Z,0.10
2019-02-16T02:20:04.662Z,0.10
2019-02-16T02:21:04.908Z,0.10
2019-02-16T02:22:04.920Z,0.10
2019-02-16T02:23:05.165Z,0.10
2019-02-16T02:24:05.097Z,0.10
2019-02-16T02:25:04.653Z,0.10
2019-02-16T02:26:04.924Z,0.10
2019-02-16T02:27:05.129Z,0.10
2019-02-16T02:28:05.063Z,0.10
2019-02-16T02:29:09.354Z,0.10
2019-02-16T02:30:04.773Z,0.10
2019-02-16T02:31:05.082Z,0.10
2019-02-16T02:32:05.140Z,0.10
2019-02-16T02:33:04.332Z,0.10
2019-02-16T02:34:04.363Z,0.10
2019-02-16T02:35:04.416Z,0.10
2019-02-16T02:36:05.085Z,0.10
2019-02-16T02:37:04.205Z,0.10
2019-02-16T02:38:04.273Z,0.10
2019-02-16T02:39:04.768Z,0.10
2019-02-16T02:40:04.920Z,0.10
2019-02-16T02:41:04.984Z,0.10
2019-02-16T02:42:04.507Z,0.10
2019-02-16T02:43:04.839Z,0.10
2019-02-16T02:44:04.970Z,0.10
2019-02-16T02:45:05.152Z,0.10
2019-02-16T02:46:04.679Z,0.10
2019-02-16T02:47:04.815Z,0.10
2019-02-16T02:48:04.425Z,0.10
2019-02-16T02:49:09.562Z,0.10
2019-02-16T02:50:05.066Z,0.10
2019-02-16T02:51:05.079Z,0.10
2019-02-16T02:52:04.261Z,0.10
2019-02-16T02:53:04.372Z,0.10
2019-02-16T02:54:04.405Z,0.10
2019-02-16T02:55:04.618Z,0.10
2019-02-16T02:56:04.638Z,0.10
2019-02-16T02:57:04.649Z,0.00
2019-02-16T02:58:04.717Z,0.00
2019-02-16T02:59:04.749Z,0.10
2019-02-16T03:00:05.080Z,0.10
2019-02-16T03:01:04.623Z,0.10
2019-02-16T03:02:04.750Z,0.10
2019-02-16T03:03:04.511Z,0.10
2019-02-16T03:04:04.894Z,0.10
2019-02-16T03:05:04.176Z,0.10
2019-02-16T03:06:04.807Z,0.10
2019-02-16T03:07:05.082Z,0.20
2019-02-16T03:08:04.329Z,0.20
2019-02-16T03:09:04.383Z,0.20
2019-02-16T03:10:04.804Z,0.20
2019-02-16T03:11:04.187Z,0.20
2019-02-16T03:12:04.290Z,0.20
2019-02-16T03:13:04.739Z,0.20
2019-02-16T03:14:04.953Z,0.20
2019-02-16T03:15:04.951Z,0.20
2019-02-16T03:16:05.237Z,0.20
2019-02-16T03:17:04.242Z,0.20
2019-02-16T03:18:04.729Z,0.20
2019-02-16T03:19:05.037Z,0.20
2019-02-16T03:20:04.456Z,0.20
2019-02-16T03:21:04.995Z,0.20
2019-02-16T03:22:04.616Z,0.20
2019-02-16T03:23:05.182Z,0.20
2019-02-16T03:24:04.248Z,0.20
2019-02-16T03:25:04.379Z,0.20
2019-02-16T03:26:04.557Z,0.20
2019-02-16T03:27:04.831Z,0.20
2019-02-16T03:28:04.560Z,0.20
2019-02-16T03:29:09.690Z,0.20
2019-02-16T03:30:05.141Z,0.20
2019-02-16T03:31:05.022Z,0.20
2019-02-16T03:32:05.153Z,0.20
2019-02-16T03:33:04.728Z,0.20
2019-02-16T03:34:05.044Z,0.20
2019-02-16T03:35:04.299Z,0.20
2019-02-16T03:36:04.497Z,0.20
2019-02-16T03:37:04.506Z,0.10
2019-02-16T03:38:04.817Z,0.10
2019-02-16T03:39:04.881Z,0.10
2019-02-16T03:40:05.055Z,0.10
2019-02-16T03:41:04.449Z,0.10
2019-02-16T03:42:04.518Z,0.10
2019-02-16T03:43:04.649Z,0.10
2019-02-16T03:44:04.904Z,0.10
2019-02-16T03:45:05.043Z,0.00
2019-02-16T03:46:05.043Z,0.00
2019-02-16T03:47:04.618Z,0.00
2019-02-16T03:48:04.782Z,0.00
2019-02-16T03:49:09.870Z,0.00
2019-02-16T03:50:04.205Z,0.00
2019-02-16T03:51:04.628Z,0.00
2019-02-16T03:52:13.173Z,0.00
2019-02-16T03:53:04.840Z,0.00
2019-02-16T03:54:04.935Z,0.00
2019-02-16T03:55:05.113Z,-0.10
2019-02-16T03:56:05.077Z,-0.10
2019-02-16T03:57:05.084Z,-0.10
2019-02-16T03:58:05.106Z,-0.10
2019-02-16T03:59:04.789Z,-0.10
2019-02-16T04:00:05.101Z,-0.10
2019-02-16T04:01:05.141Z,-0.10
2019-02-16T04:02:04.722Z,-0.10
2019-02-16T04:03:05.219Z,-0.10
2019-02-16T04:04:04.183Z,-0.10
2019-02-16T04:05:04.227Z,-0.10
2019-02-16T04:06:04.340Z,-0.20
2019-02-16T04:07:04.369Z,-0.20
2019-02-16T04:08:04.545Z,-0.20
2019-02-16T04:09:04.617Z,-0.20
2019-02-16T04:10:04.594Z,-0.20
2019-02-16T04:11:04.748Z,-0.20
2019-02-16T04:12:04.982Z,-0.20
2019-02-16T04:13:04.215Z,-0.20
2019-02-16T04:14:04.286Z,-0.20
2019-02-16T04:15:04.830Z,-0.20
2019-02-16T04:16:04.911Z,-0.20
2019-02-16T04:17:04.315Z,-0.30
2019-02-16T04:18:04.509Z,-0.20
2019-02-16T04:19:05.105Z,-0.30
2019-02-16T04:20:05.120Z,-0.20
2019-02-16T04:21:04.269Z,-0.30
2019-02-16T04:22:04.782Z,-0.20
2019-02-16T04:23:04.653Z,-0.30
2019-02-16T04:24:04.397Z,-0.20
2019-02-16T04:25:04.721Z,-0.20
2019-02-16T04:26:04.715Z,-0.20
2019-02-16T04:27:04.667Z,-0.20
2019-02-16T04:28:04.869Z,-0.20
2019-02-16T04:29:10.007Z,-0.20
2019-02-16T04:30:04.676Z,-0.20
2019-02-16T04:31:04.970Z,-0.20
2019-02-16T04:32:05.198Z,-0.20
2019-02-16T04:33:04.603Z,-0.20
2019-02-16T04:34:04.755Z,-0.20
2019-02-16T04:35:04.972Z,-0.20
2019-02-16T04:36:04.350Z,-0.20
2019-02-16T04:37:05.116Z,-0.20
2019-02-16T04:38:05.039Z,-0.20
2019-02-16T04:39:04.632Z,-0.20
2019-02-16T04:40:04.776Z,-0.20
2019-02-16T04:41:05.105Z,-0.20
2019-02-16T04:42:04.746Z,-0.10
2019-02-16T04:43:05.187Z,-0.10
2019-02-16T04:44:05.092Z,-0.10
2019-02-16T04:45:04.686Z,-0.10
2019-02-16T04:46:04.615Z,-0.10
2019-02-16T04:47:04.148Z,-0.10
2019-02-16T04:48:04.954Z,-0.10
2019-02-16T04:49:04.280Z,0.00
2019-02-16T04:50:04.519Z,0.00
2019-02-16T04:51:04.809Z,0.00
2019-02-16T04:52:05.113Z,0.00
2019-02-16T04:53:05.195Z,0.00
2019-02-16T04:54:04.868Z,0.00
2019-02-16T04:55:05.174Z,0.10
2019-02-16T04:56:04.343Z,0.10
2019-02-16T04:57:04.506Z,0.10
2019-02-16T04:58:04.470Z,0.10
2019-02-16T04:59:05.020Z,0.10
2019-02-16T05:00:04.390Z,0.20
2019-02-16T05:01:04.431Z,0.20
2019-02-16T05:02:09.613Z,0.20
2019-02-16T05:03:04.905Z,0.20
2019-02-16T05:04:05.066Z,0.30
2019-02-16T05:05:04.311Z,0.30
2019-02-16T05:06:04.831Z,0.30
2019-02-16T05:07:04.805Z,0.30
2019-02-16T05:08:04.898Z,0.40
2019-02-16T05:09:05.150Z,0.40
2019-02-16T05:10:04.563Z,0.40
2019-02-16T05:11:05.075Z,0.40
2019-02-16T05:12:04.702Z,0.40
2019-02-16T05:13:04.322Z,0.40
2019-02-16T05:14:04.873Z,0.50
2019-02-16T05:15:04.226Z,0.50
2019-02-16T05:16:04.858Z,0.50
2019-02-16T05:17:05.040Z,0.50
2019-02-16T05:18:04.448Z,0.60
2019-02-16T05:19:04.381Z,0.60
2019-02-16T05:20:04.610Z,0.60
2019-02-16T05:21:04.807Z,0.60
2019-02-16T05:22:04.932Z,0.70
2019-02-16T05:23:04.759Z,0.70
2019-02-16T05:24:04.747Z,0.70
2019-02-16T05:25:05.550Z,0.70
2019-02-16T05:26:04.899Z,0.80
2019-02-16T05:27:04.477Z,0.80
2019-02-16T05:28:04.445Z,0.80
2019-02-16T05:29:04.681Z,0.80
2019-02-16T05:30:04.859Z,0.80
2019-02-16T05:31:04.899Z,0.80
2019-02-16T05:32:05.096Z,0.80
2019-02-16T05:33:04.409Z,0.80
2019-02-16T05:34:05.041Z,0.90
2019-02-16T05:35:04.565Z,0.90
2019-02-16T05:36:09.931Z,0.90
2019-02-16T05:37:04.286Z,0.90
2019-02-16T05:38:04.545Z,0.90
2019-02-16T05:39:04.549Z,0.90
2019-02-16T05:40:04.661Z,0.90
2019-02-16T05:41:04.766Z,0.90
2019-02-16T05:42:04.900Z,0.90
2019-02-16T05:43:04.492Z,1.00
2019-02-16T05:44:04.483Z,1.00
2019-02-16T05:45:04.856Z,0.90
2019-02-16T05:46:05.132Z,0.90
2019-02-16T05:47:04.773Z,0.90
2019-02-16T05:48:04.790Z,0.90
2019-02-16T05:49:05.051Z,0.90
2019-02-16T05:50:05.148Z,0.90
2019-02-16T05:51:04.453Z,0.90
2019-02-16T05:52:04.780Z,0.90
2019-02-16T05:53:05.025Z,0.90
2019-02-16T05:54:05.162Z,0.90
2019-02-16T05:55:04.448Z,0.90
2019-02-16T05:56:04.905Z,0.90
2019-02-16T05:57:04.928Z,0.90
2019-02-16T05:58:05.160Z,0.90
2019-02-16T05:59:05.127Z,0.90
2019-02-16T06:00:04.425Z,1.00
2019-02-16T06:01:04.591Z,1.00
2019-02-16T06:02:04.752Z,0.90
2019-02-16T06:03:04.968Z,1.00
2019-02-16T06:04:05.032Z,1.00
2019-02-16T06:05:04.444Z,1.00
2019-02-16T06:06:04.345Z,0.90
2019-02-16T06:07:04.608Z,1.00
2019-02-16T06:08:04.729Z,1.00
2019-02-16T06:09:04.762Z,1.00
2019-02-16T06:10:04.443Z,1.00
2019-02-16T06:11:05.932Z,1.00
2019-02-16T06:12:04.821Z,1.00
2019-02-16T06:13:04.266Z,1.00
2019-02-16T06:14:04.724Z,1.00
2019-02-16T06:15:04.773Z,0.90
2019-02-16T06:16:05.091Z,0.90
2019-02-16T06:17:04.577Z,1.00
2019-02-16T06:18:04.700Z,1.00
2019-02-16T06:19:04.946Z,0.90
2019-02-16T06:20:04.303Z,1.00
2019-02-16T06:21:04.511Z,1.00
2019-02-16T06:22:05.001Z,1.00
2019-02-16T06:23:04.990Z,0.90
2019-02-16T06:24:04.421Z,0.90
2019-02-16T06:25:04.571Z,0.90
2019-02-16T06:26:04.635Z,0.90
2019-02-16T06:27:05.148Z,0.90
2019-02-16T06:28:04.812Z,0.90
2019-02-16T06:29:09.331Z,0.90
2019-02-16T06:30:04.833Z,0.90
2019-02-16T06:31:04.259Z,0.90
2019-02-16T06:32:04.287Z,0.90
2019-02-16T06:33:04.360Z,0.90
2019-02-16T06:34:04.357Z,0.90
2019-02-16T06:35:04.929Z,0.90
2019-02-16T06:36:05.147Z,0.90
2019-02-16T06:37:04.372Z,0.90
2019-02-16T06:38:04.471Z,0.90
2019-02-16T06:39:04.287Z,0.90
2019-02-16T06:40:04.956Z,0.90
2019-02-16T06:41:04.310Z,1.00
2019-02-16T06:42:04.352Z,1.00
2019-02-16T06:43:05.101Z,1.00
2019-02-16T06:44:04.439Z,1.00
2019-02-16T06:45:04.406Z,1.00
2019-02-16T06:46:04.488Z,1.00
2019-02-16T06:47:04.587Z,1.00
2019-02-16T06:48:04.798Z,1.00
2019-02-16T06:49:05.072Z,1.10
2019-02-16T06:50:05.313Z,1.10
2019-02-16T06:51:04.448Z,1.10
2019-02-16T06:52:04.445Z,1.10
2019-02-16T06:53:12.781Z,1.10
2019-02-16T06:54:05.186Z,1.10
2019-02-16T06:55:04.417Z,1.10
2019-02-16T06:56:04.539Z,1.10
2019-02-16T06:57:04.624Z,1.10
2019-02-16T06:58:04.894Z,1.10
2019-02-16T06:59:04.922Z,1.10
2019-02-16T07:00:04.989Z,1.10
2019-02-16T07:01:05.046Z,1.10
2019-02-16T07:02:04.289Z,1.10
2019-02-16T07:03:04.451Z,1.10
2019-02-16T07:04:05.159Z,1.10
2019-02-16T07:05:04.292Z,1.10
2019-02-16T07:06:05.044Z,1.10
2019-02-16T07:07:04.611Z,1.10
2019-02-16T07:08:05.083Z,1.20
2019-02-16T07:09:05.289Z,1.20
2019-02-16T07:10:04.236Z,1.20
2019-02-16T07:11:04.522Z,1.20
2019-02-16T07:12:05.163Z,1.30
2019-02-16T07:13:05.176Z,1.30
2019-02-16T07:14:04.256Z,1.30
2019-02-16T07:15:04.563Z,1.40
2019-02-16T07:16:04.682Z,1.40
2019-02-16T07:17:04.205Z,1.50
2019-02-16T07:18:04.331Z,1.60
2019-02-16T07:19:05.082Z,1.70
2019-02-16T07:20:05.060Z,1.80
2019-02-16T07:21:04.360Z,1.90
2019-02-16T07:22:04.704Z,2.00
2019-02-16T07:23:04.213Z,2.10
2019-02-16T07:24:04.762Z,2.30
2019-02-16T07:25:05.124Z,2.40
2019-02-16T07:26:05.260Z,2.50
2019-02-16T07:27:04.342Z,2.60
2019-02-16T07:28:04.408Z,2.70
2019-02-16T07:29:09.719Z,2.80
2019-02-16T07:30:05.303Z,2.90
2019-02-16T07:31:04.324Z,3.00
2019-02-16T07:32:04.462Z,3.10
2019-02-16T07:33:04.522Z,3.20
2019-02-16T07:34:05.000Z,3.30
2019-02-16T07:35:04.363Z,3.40
2019-02-16T07:36:04.516Z,3.50
2019-02-16T07:37:05.121Z,3.60
2019-02-16T07:38:05.052Z,3.70
2019-02-16T07:39:04.260Z,3.80
2019-02-16T07:40:04.435Z,3.90
2019-02-16T07:41:04.443Z,4.00
2019-02-16T07:42:05.185Z,4.10
2019-02-16T07:43:04.292Z,4.20
2019-02-16T07:44:04.912Z,4.30
2019-02-16T07:45:04.941Z,4.40
2019-02-16T07:46:04.445Z,4.50
2019-02-16T07:47:04.854Z,4.50
2019-02-16T07:48:04.867Z,4.60
2019-02-16T07:49:04.415Z,4.70
2019-02-16T07:50:04.517Z,4.80
2019-02-16T07:51:04.691Z,4.80
2019-02-16T07:52:04.857Z,4.90
2019-02-16T07:53:05.200Z,5.00
2019-02-16T07:54:04.413Z,5.10
2019-02-16T07:55:04.779Z,5.10
2019-02-16T07:56:04.911Z,5.20
2019-02-16T07:57:05.088Z,5.30
2019-02-16T07:58:04.682Z,5.40
2019-02-16T07:59:04.754Z,5.40
2019-02-16T08:00:04.704Z,5.50
2019-02-16T08:01:05.144Z,5.50
2019-02-16T08:02:05.219Z,5.60
2019-02-16T08:03:04.354Z,5.70
2019-02-16T08:04:04.423Z,5.70
2019-02-16T08:05:04.713Z,5.80
2019-02-16T08:06:05.257Z,5.80
2019-02-16T08:07:04.556Z,5.80
2019-02-16T08:08:04.332Z,5.90
2019-02-16T08:09:04.814Z,6.00
2019-02-16T08:10:05.089Z,6.00
2019-02-16T08:11:05.062Z,6.00
2019-02-16T08:12:04.715Z,6.10
2019-02-16T08:13:04.721Z,6.10
2019-02-16T08:14:04.964Z,6.20
2019-02-16T08:15:04.275Z,6.20
2019-02-16T08:16:04.723Z,6.20
2019-02-16T08:17:04.777Z,6.30
2019-02-16T08:18:04.956Z,6.30
2019-02-16T08:19:05.002Z,6.40
2019-02-16T08:20:05.024Z,6.40
2019-02-16T08:21:04.593Z,6.40
2019-02-16T08:22:04.712Z,6.40
2019-02-16T08:23:05.168Z,6.50
2019-02-16T08:24:05.144Z,6.50
2019-02-16T08:25:05.128Z,6.50
2019-02-16T08:26:04.394Z,6.60
2019-02-16T08:27:05.285Z,6.60
2019-02-16T08:28:04.317Z,6.60
2019-02-16T08:29:09.950Z,6.60
2019-02-16T08:30:04.368Z,6.70
2019-02-16T08:31:04.381Z,6.70
2019-02-16T08:32:04.643Z,6.70
2019-02-16T08:33:04.930Z,6.80
2019-02-16T08:34:05.068Z,6.80
2019-02-16T08:35:04.215Z,6.90
2019-02-16T08:36:04.299Z,6.90
2019-02-16T08:37:04.490Z,6.90
2019-02-16T08:38:04.632Z,7.00
2019-02-16T08:39:04.890Z,7.00
2019-02-16T08:40:04.618Z,7.00
2019-02-16T08:41:04.752Z,7.10
2019-02-16T08:42:05.168Z,7.10
2019-02-16T08:43:04.806Z,7.20
2019-02-16T08:44:05.111Z,7.20
2019-02-16T08:45:04.203Z,7.20
2019-02-16T08:46:04.480Z,7.30
2019-02-16T08:47:04.919Z,7.30
2019-02-16T08:48:04.657Z,7.40
2019-02-16T08:49:04.716Z,7.40
2019-02-16T08:50:04.861Z,7.40
2019-02-16T08:51:05.092Z,7.50
2019-02-16T08:52:05.034Z,7.50
2019-02-16T08:53:05.205Z,7.60
2019-02-16T08:54:05.014Z,7.60
2019-02-16T08:55:04.994Z,7.60
2019-02-16T08:56:05.310Z,7.70
2019-02-16T08:57:04.645Z,7.70
2019-02-16T08:58:04.897Z,7.70
2019-02-16T08:59:05.314Z,7.80
2019-02-16T09:00:04.272Z,7.80
2019-02-16T09:01:04.374Z,7.80
2019-02-16T09:02:05.220Z,7.90
2019-02-16T09:03:04.238Z,7.90
2019-02-16T09:04:04.377Z,7.90
2019-02-16T09:05:04.579Z,8.00
2019-02-16T09:06:04.873Z,8.00
2019-02-16T09:07:05.022Z,8.00
2019-02-16T09:08:04.421Z,8.10
2019-02-16T09:09:04.528Z,8.10
2019-02-16T09:10:04.671Z,8.10
2019-02-16T09:11:04.633Z,8.20
2019-02-16T09:12:05.955Z,8.20
2019-02-16T09:13:04.715Z,8.20
2019-02-16T09:14:04.924Z,8.30
2019-02-16T09:15:05.172Z,8.30
2019-02-16T09:16:04.736Z,8.40
2019-02-16T09:17:04.833Z,8.40
2019-02-16T09:18:05.124Z,8.50
2019-02-16T09:19:04.382Z,8.50
2019-02-16T09:20:04.550Z,8.50
2019-02-16T09:21:04.553Z,8.60
2019-02-16T09:22:04.655Z,8.60
2019-02-16T09:23:04.607Z,8.70
2019-02-16T09:24:05.160Z,8.70
2019-02-16T09:25:04.748Z,8.80
2019-02-16T09:26:05.022Z,8.80
2019-02-16T09:27:04.435Z,8.80
2019-02-16T09:28:04.512Z,8.90
2019-02-16T09:29:10.075Z,8.90
2019-02-16T09:30:04.489Z,9.00
2019-02-16T09:31:04.547Z,9.00
2019-02-16T09:32:04.773Z,9.10
2019-02-16T09:33:04.307Z,9.10
2019-02-16T09:34:04.706Z,9.10
2019-02-16T09:35:04.945Z,9.20
2019-02-16T09:36:05.174Z,9.20
2019-02-16T09:37:04.197Z,9.20
2019-02-16T09:38:04.403Z,9.30
2019-02-16T09:39:04.987Z,9.30
2019-02-16T09:40:04.324Z,9.40
2019-02-16T09:41:04.843Z,9.40
2019-02-16T09:42:04.872Z,9.40
2019-02-16T09:43:04.661Z,9.50
2019-02-16T09:44:05.156Z,9.50
2019-02-16T09:45:04.425Z,9.60
2019-02-16T09:46:05.076Z,9.60
2019-02-16T09:47:04.334Z,9.70
2019-02-16T09:48:04.495Z,9.70
2019-02-16T09:49:04.756Z,9.70
2019-02-16T09:50:04.923Z,9.80
2019-02-16T09:51:04.661Z,9.80
2019-02-16T09:52:09.736Z,9.90
2019-02-16T09:53:05.239Z,9.90
2019-02-16T09:54:08.287Z,10.00
2019-02-16T09:55:04.333Z,10.00
2019-02-16T09:56:05.024Z,10.10
2019-02-16T09:57:04.988Z,10.10
2019-02-16T09:58:04.361Z,10.10
2019-02-16T09:59:04.843Z,10.20
2019-02-16T10:00:04.241Z,10.20
2019-02-16T10:01:04.497Z,10.30
2019-02-16T10:02:04.739Z,10.30
2019-02-16T10:03:05.173Z,10.40
2019-02-16T10:04:05.158Z,10.40
2019-02-16T10:05:04.367Z,10.50
2019-02-16T10:06:04.876Z,10.50
2019-02-16T10:07:04.218Z,10.60
2019-02-16T10:08:04.516Z,10.60
2019-02-16T10:09:05.003Z,10.60
2019-02-16T10:10:05.180Z,10.70
2019-02-16T10:11:04.820Z,10.70
2019-02-16T10:12:05.073Z,10.80
2019-02-16T10:13:05.162Z,10.90
2019-02-16T10:14:04.380Z,10.90
2019-02-16T10:15:04.462Z,10.90
2019-02-16T10:16:04.740Z,11.00
2019-02-16T10:17:05.025Z,11.00
2019-02-16T10:18:05.104Z,11.10
2019-02-16T10:19:04.480Z,11.10
2019-02-16T10:20:04.865Z,11.10
2019-02-16T10:21:04.652Z,11.20
2019-02-16T10:22:04.894Z,11.30
2019-02-16T10:23:05.073Z,11.30
2019-02-16T10:24:04.382Z,11.30
2019-02-16T10:25:05.007Z,11.40
2019-02-16T10:26:04.750Z,11.40
2019-02-16T10:27:05.029Z,11.50
2019-02-16T10:28:04.248Z,11.50
2019-02-16T10:29:09.457Z,11.60
2019-02-16T10:30:04.859Z,11.60
2019-02-16T10:31:04.347Z,11.60
2019-02-16T10:32:04.973Z,11.70
2019-02-16T10:33:04.951Z,11.70
2019-02-16T10:34:05.146Z,11.70
2019-02-16T10:35:04.184Z,11.70
2019-02-16T10:36:04.496Z,11.80
2019-02-16T10:37:04.441Z,11.80
2019-02-16T10:38:04.739Z,11.90
2019-02-16T10:39:05.113Z,11.90
2019-02-16T10:40:04.399Z,11.90
2019-02-16T10:41:04.496Z,12.00
2019-02-16T10:42:04.810Z,12.00
2019-02-16T10:43:04.892Z,12.10
2019-02-16T10:44:04.400Z,12.10
2019-02-16T10:45:04.918Z,12.10
2019-02-16T10:46:04.615Z,12.20
2019-02-16T10:47:05.131Z,12.20
2019-02-16T10:48:04.221Z,12.20
2019-02-16T10:49:04.402Z,12.30
2019-02-16T10:50:04.472Z,12.30
2019-02-16T10:51:04.535Z,12.30
2019-02-16T10:52:04.354Z,12.40
2019-02-16T10:53:04.460Z,12.40
2019-02-16T10:54:04.484Z,12.50
2019-02-16T10:55:05.185Z,12.50
2019-02-16T10:56:04.332Z,12.50
2019-02-16T10:57:04.883Z,12.60
2019-02-16T10:58:05.098Z,12.60
2019-02-16T10:59:04.811Z,12.70
2019-02-16T11:00:04.420Z,12.70
2019-02-16T11:01:04.738Z,12.70
2019-02-16T11:02:04.841Z,12.70
2019-02-16T11:03:04.440Z,12.80
2019-02-16T11:04:04.913Z,12.80
2019-02-16T11:05:04.363Z,12.80
2019-02-16T11:06:04.571Z,12.80
2019-02-16T11:07:04.833Z,12.90
2019-02-16T11:08:05.145Z,12.90
2019-02-16T11:09:04.654Z,12.90
2019-02-16T11:10:04.725Z,13.00
2019-02-16T11:11:04.850Z,13.00
2019-02-16T11:12:05.015Z,13.00
2019-02-16T11:13:04.542Z,13.10
2019-02-16T11:14:04.817Z,13.10
2019-02-16T11:15:04.910Z,13.10
2019-02-16T11:16:05.127Z,13.10
2019-02-16T11:17:04.554Z,13.20
2019-02-16T11:18:04.714Z,13.20
2019-02-16T11:19:04.946Z,13.20
2019-02-16T11:20:05.191Z,13.30
2019-02-16T11:21:04.585Z,13.30
2019-02-16T11:22:04.790Z,13.30
2019-02-16T11:23:05.011Z,13.40
2019-02-16T11:24:04.437Z,13.40
2019-02-16T11:25:04.873Z,13.40
2019-02-16T11:26:04.630Z,13.40
2019-02-16T11:27:04.806Z,13.40
2019-02-16T11:28:04.810Z,13.50
2019-02-16T11:29:11.063Z,13.50
2019-02-16T11:30:04.664Z,13.50
2019-02-16T11:31:04.886Z,13.50
2019-02-16T11:32:05.009Z,13.60
2019-02-16T11:33:04.267Z,13.60
2019-02-16T11:34:04.309Z,13.60
2019-02-16T11:35:04.977Z,13.70
2019-02-16T11:36:05.049Z,13.70
2019-02-16T11:37:04.658Z,13.70
2019-02-16T11:38:04.897Z,13.80
2019-02-16T11:39:04.804Z,13.80
2019-02-16T11:40:05.039Z,13.80
2019-02-16T11:41:04.471Z,13.80
2019-02-16T11:42:04.677Z,13.90
2019-02-16T11:43:04.886Z,13.90
2019-02-16T11:44:04.978Z,13.90
2019-02-16T11:45:05.060Z,14.00
2019-02-16T11:46:04.600Z,14.00
2019-02-16T11:47:05.001Z,14.00
2019-02-16T11:48:04.360Z,14.00
2019-02-16T11:49:04.522Z,14.10
2019-02-16T11:50:04.757Z,14.10
2019-02-16T11:51:04.908Z,14.10
2019-02-16T11:52:04.296Z,14.20
2019-02-16T11:53:04.441Z,14.20
2019-02-16T11:54:05.285Z,14.20
2019-02-16T11:55:04.627Z,14.20
2019-02-16T11:56:04.977Z,14.30
2019-02-16T11:57:04.956Z,14.30
2019-02-16T11:58:04.634Z,14.30
2019-02-16T11:59:04.685Z,14.30
2019-02-16T12:00:05.268Z,14.40
2019-02-16T12:01:04.253Z,14.40
2019-02-16T12:02:04.573Z,14.40
2019-02-16T12:03:04.609Z,14.40
2019-02-16T12:04:04.708Z,14.40
2019-02-16T12:05:04.234Z,14.40
2019-02-16T12:06:04.863Z,14.40
2019-02-16T12:07:05.083Z,14.50
2019-02-16T12:08:04.548Z,14.50
2019-02-16T12:09:04.298Z,14.50
2019-02-16T12:10:04.347Z,14.50
2019-02-16T12:11:04.508Z,14.50
2019-02-16T12:12:04.817Z,14.50
2019-02-16T12:13:04.958Z,14.50
2019-02-16T12:14:04.301Z,14.50
2019-02-16T12:15:04.959Z,14.60
2019-02-16T12:16:04.516Z,14.60
2019-02-16T12:17:05.006Z,14.60
2019-02-16T12:18:05.143Z,14.60
2019-02-16T12:19:04.307Z,14.70
2019-02-16T12:20:04.777Z,14.70
2019-02-16T12:21:04.451Z,14.70
2019-02-16T12:22:04.933Z,14.70
2019-02-16T12:23:04.459Z,14.70
2019-02-16T12:24:04.907Z,14.70
2019-02-16T12:25:05.916Z,14.70
2019-02-16T12:26:04.958Z,14.70
2019-02-16T12:27:04.980Z,14.80
2019-02-16T12:28:04.621Z,14.80
2019-02-16T12:29:09.707Z,14.80
2019-02-16T12:30:05.142Z,14.80
2019-02-16T12:31:04.255Z,14.80
2019-02-16T12:32:04.403Z,14.80
2019-02-16T12:33:04.551Z,14.80
2019-02-16T12:34:04.619Z,14.80
2019-02-16T12:35:04.948Z,14.90
2019-02-16T12:36:05.108Z,14.80
2019-02-16T12:37:04.230Z,14.90
2019-02-16T12:38:04.527Z,14.90
2019-02-16T12:39:05.198Z,14.90
2019-02-16T12:40:04.306Z,14.90
2019-02-16T12:41:04.777Z,14.90
2019-02-16T12:42:04.359Z,14.90
2019-02-16T12:43:04.729Z,15.00
2019-02-16T12:44:04.834Z,15.00
2019-02-16T12:45:05.039Z,15.00
2019-02-16T12:46:04.372Z,15.00
2019-02-16T12:47:04.513Z,15.00
2019-02-16T12:48:04.655Z,15.00
2019-02-16T12:49:10.141Z,15.00
2019-02-16T12:50:04.509Z,15.00
2019-02-16T12:51:04.499Z,15.10
2019-02-16T12:52:05.100Z,15.10
2019-02-16T12:53:04.211Z,15.10
2019-02-16T12:54:04.767Z,15.10
2019-02-16T12:55:14.144Z,15.10
2019-02-16T12:56:04.514Z,15.10
2019-02-16T12:57:04.609Z,15.10
2019-02-16T12:58:05.163Z,15.10
2019-02-16T12:59:04.426Z,15.10
2019-02-16T13:00:04.559Z,15.10
2019-02-16T13:01:04.713Z,15.10
2019-02-16T13:02:04.187Z,15.20
2019-02-16T13:03:04.445Z,15.20
2019-02-16T13:04:04.452Z,15.20
2019-02-16T13:05:05.048Z,15.20
2019-02-16T13:06:04.429Z,15.20
2019-02-16T13:07:04.854Z,15.10
2019-02-16T13:08:04.496Z,15.20
2019-02-16T13:09:04.649Z,15.20
2019-02-16T13:10:04.686Z,15.20